PWSweather.com
Personal Weather Stations
Station Observations
IHTIMAN1
Neighbourhood 1, IhtimanBG 2050

Neighbourhood 1IhtimanBG 2050

Lat: 42.436852, Lon: 23.817921

Elevation: 2066

Station Type: Oregon Scientific WMR968

http://ihtiman-meteo.com

High Low Average
Temperature 80.4°F26.9°C 59.7°F15.4°C 68.4°F20.2°C
Dew Point 72.8°F22.7°C 59.0°F15.0°C 62.7°F17.1°C
Winds 5.8 mph 9.3 kmh Calm Calm 1.0 mph SW1.6 kmh SW
Wind Gusts 8.1 mph13.0 kmh -- 2.0 mph3.2 kmh
Humidity 98% 55% 84%
Pressure 30.24 in1024.0 mb 30.12 in1020.0 mb -
Precipitation 0.43 in10.9 mm - -
Hour Temp Dew Point Humidity Winds Wind Gusts Pressure Precip Precip Rate Daily Precip Total
12:00 AM 60.6°F15.9°C 60.0°F15.6°C 98% Calm Calm -- 30.12 in1020.0 mb - 0.00 in0.0 mm 0.00 in0.0 mm
12:10 AM 60.4°F15.8°C 59.9°F15.5°C 98% Calm Calm -- 30.12 in1020.0 mb - 0.00 in0.0 mm 0.00 in0.0 mm
12:20 AM 60.4°F15.8°C 59.9°F15.5°C 98% Calm Calm -- 30.12 in1020.0 mb - 0.00 in0.0 mm 0.00 in0.0 mm
12:30 AM 60.6°F15.9°C 60.1°F15.6°C 98% Calm Calm -- 30.15 in1021.0 mb - 0.00 in0.0 mm 0.00 in0.0 mm
12:40 AM 60.6°F15.9°C 60.1°F15.6°C 98% Calm Calm -- 30.15 in1021.0 mb - 0.00 in0.0 mm 0.00 in0.0 mm
12:50 AM 60.6°F15.9°C 60.1°F15.6°C 98% Calm Calm -- 30.15 in1021.0 mb - 0.00 in0.0 mm 0.00 in0.0 mm
01:00 AM 60.6°F15.9°C 60.1°F15.6°C 98% Calm Calm -- 30.15 in1021.0 mb - 0.05 in1.3 mm 0.05 in1.3 mm
01:10 AM 60.6°F15.9°C 60.1°F15.6°C 98% Calm Calm -- 30.15 in1021.0 mb - 0.09 in2.3 mm 0.09 in2.3 mm
01:20 AM 60.6°F15.9°C 60.0°F15.6°C 98% 3.5 mph N5.6 kmh N 3.5 mph5.6 kmh 30.15 in1021.0 mb - 0.19 in4.8 mm 0.19 in4.8 mm
01:30 AM 60.4°F15.8°C 59.9°F15.5°C 98% Calm Calm 3.5 mph5.6 kmh 30.12 in1020.0 mb - 0.19 in4.8 mm 0.19 in4.8 mm
01:40 AM 60.2°F15.7°C 59.7°F15.4°C 98% Calm Calm -- 30.12 in1020.0 mb - 0.19 in4.8 mm 0.19 in4.8 mm
01:50 AM 60.1°F15.6°C 59.5°F15.3°C 98% Calm Calm -- 30.12 in1020.0 mb - 0.19 in4.8 mm 0.19 in4.8 mm
02:00 AM 60.1°F15.6°C 59.5°F15.3°C 98% Calm Calm -- 30.12 in1020.0 mb - 0.14 in3.6 mm 0.19 in4.8 mm
02:10 AM 60.1°F15.6°C 59.5°F15.3°C 98% Calm Calm -- 30.12 in1020.0 mb - 0.14 in3.6 mm 0.19 in4.8 mm
02:20 AM 60.1°F15.6°C 59.5°F15.3°C 98% Calm Calm -- 30.12 in1020.0 mb - 0.00 in0.0 mm 0.19 in4.8 mm
02:30 AM 60.1°F15.6°C 59.5°F15.3°C 98% Calm Calm -- 30.12 in1020.0 mb - 0.00 in0.0 mm 0.19 in4.8 mm
02:40 AM 60.3°F15.7°C 59.7°F15.4°C 98% Calm Calm -- 30.12 in1020.0 mb - 0.00 in0.0 mm 0.19 in4.8 mm
02:50 AM 60.3°F15.7°C 59.7°F15.4°C 98% Calm Calm -- 30.12 in1020.0 mb - 0.00 in0.0 mm 0.19 in4.8 mm
03:00 AM 60.3°F15.7°C 59.7°F15.4°C 98% Calm Calm -- 30.12 in1020.0 mb - 0.00 in0.0 mm 0.19 in4.8 mm
03:10 AM 60.3°F15.7°C 59.7°F15.4°C 98% Calm Calm -- 30.12 in1020.0 mb - 0.00 in0.0 mm 0.19 in4.8 mm
03:20 AM 60.1°F15.6°C 59.5°F15.3°C 98% Calm Calm -- 30.12 in1020.0 mb - 0.00 in0.0 mm 0.19 in4.8 mm
03:30 AM 59.9°F15.5°C 59.3°F15.2°C 98% Calm Calm -- 30.12 in1020.0 mb - 0.00 in0.0 mm 0.19 in4.8 mm
03:40 AM 59.7°F15.4°C 59.2°F15.1°C 98% Calm Calm -- 30.12 in1020.0 mb - 0.00 in0.0 mm 0.19 in4.8 mm
03:50 AM 59.7°F15.4°C 59.2°F15.1°C 98% Calm Calm -- 30.12 in1020.0 mb - 0.00 in0.0 mm 0.19 in4.8 mm
04:00 AM 60.1°F15.6°C 59.5°F15.3°C 98% Calm Calm -- 30.12 in1020.0 mb - 0.00 in0.0 mm 0.19 in4.8 mm
04:10 AM 60.1°F15.6°C 59.5°F15.3°C 98% Calm Calm -- 30.12 in1020.0 mb - 0.00 in0.0 mm 0.19 in4.8 mm
04:20 AM 60.3°F15.7°C 59.7°F15.4°C 98% Calm Calm -- 30.12 in1020.0 mb - 0.00 in0.0 mm 0.19 in4.8 mm
04:30 AM 60.3°F15.7°C 59.7°F15.4°C 98% Calm Calm -- 30.12 in1020.0 mb - 0.00 in0.0 mm 0.19 in4.8 mm
04:40 AM 60.3°F15.7°C 59.7°F15.4°C 98% Calm Calm -- 30.12 in1020.0 mb - 0.00 in0.0 mm 0.19 in4.8 mm
04:50 AM 60.2°F15.7°C 59.6°F15.3°C 98% Calm Calm -- 30.12 in1020.0 mb - 0.00 in0.0 mm 0.19 in4.8 mm
05:00 AM 60.1°F15.6°C 59.5°F15.3°C 98% Calm Calm -- 30.12 in1020.0 mb - 0.00 in0.0 mm 0.19 in4.8 mm
05:10 AM 60.1°F15.6°C 59.5°F15.3°C 98% Calm Calm -- 30.12 in1020.0 mb - 0.00 in0.0 mm 0.19 in4.8 mm
05:20 AM 60.3°F15.7°C 59.7°F15.4°C 98% Calm Calm -- 30.12 in1020.0 mb - 0.00 in0.0 mm 0.19 in4.8 mm
05:30 AM 60.4°F15.8°C 59.9°F15.5°C 98% Calm Calm -- 30.12 in1020.0 mb - 0.00 in0.0 mm 0.19 in4.8 mm
05:40 AM 60.8°F16.0°C 60.2°F15.7°C 98% Calm Calm -- 30.12 in1020.0 mb - 0.00 in0.0 mm 0.19 in4.8 mm
05:50 AM 60.8°F16.0°C 60.2°F15.7°C 98% Calm Calm -- 30.12 in1020.0 mb - 0.00 in0.0 mm 0.19 in4.8 mm
06:00 AM 60.8°F16.0°C 60.2°F15.7°C 98% Calm Calm -- 30.12 in1020.0 mb - 0.00 in0.0 mm 0.19 in4.8 mm
06:10 AM 61.0°F16.1°C 60.4°F15.8°C 98% Calm Calm -- 30.12 in1020.0 mb - 0.00 in0.0 mm 0.19 in4.8 mm
06:20 AM 61.2°F16.2°C 60.6°F15.9°C 98% Calm Calm -- 30.12 in1020.0 mb - 0.00 in0.0 mm 0.19 in4.8 mm
06:30 AM 61.5°F16.4°C 61.0°F16.1°C 98% Calm Calm -- 30.12 in1020.0 mb - 0.00 in0.0 mm 0.19 in4.8 mm
06:40 AM 61.7°F16.5°C 61.1°F16.2°C 98% Calm Calm -- 30.12 in1020.0 mb - 0.00 in0.0 mm 0.19 in4.8 mm
06:50 AM 61.9°F16.6°C 61.3°F16.3°C 98% Calm Calm -- 30.15 in1021.0 mb - 0.00 in0.0 mm 0.19 in4.8 mm
07:00 AM 63.0°F17.2°C 62.4°F16.9°C 98% Calm Calm -- 30.15 in1021.0 mb - 0.00 in0.0 mm 0.19 in4.8 mm
07:10 AM 63.8°F17.7°C 63.3°F17.4°C 98% Calm Calm -- 30.15 in1021.0 mb - 0.00 in0.0 mm 0.19 in4.8 mm
07:20 AM 64.5°F18.1°C 63.9°F17.7°C 98% Calm Calm -- 30.15 in1021.0 mb - 0.00 in0.0 mm 0.19 in4.8 mm
07:30 AM 65.7°F18.7°C 65.1°F18.4°C 98% Calm Calm -- 30.15 in1021.0 mb - 0.00 in0.0 mm 0.19 in4.8 mm
07:40 AM 66.8°F19.3°C 66.2°F19.0°C 98% Calm Calm -- 30.15 in1021.0 mb - 0.00 in0.0 mm 0.19 in4.8 mm
07:50 AM 67.4°F19.7°C 66.3°F19.1°C 96% Calm Calm -- 30.12 in1020.0 mb - 0.00 in0.0 mm 0.19 in4.8 mm
08:00 AM 67.2°F19.6°C 65.1°F18.4°C 93% 2.3 mph NW3.7 kmh NW 5.8 mph9.3 kmh 30.15 in1021.0 mb - 0.00 in0.0 mm 0.19 in4.8 mm
08:20 AM 68.3°F20.2°C 64.6°F18.1°C 88% 2.3 mph W3.7 kmh W 5.8 mph9.3 kmh 30.15 in1021.0 mb - 0.00 in0.0 mm 0.19 in4.8 mm
08:30 AM 69.2°F20.7°C 65.5°F18.6°C 88% 2.3 mph NNW3.7 kmh NNW 4.6 mph7.4 kmh 30.15 in1021.0 mb - 0.00 in0.0 mm 0.19 in4.8 mm
08:40 AM 69.6°F20.9°C 65.2°F18.4°C 86% Calm Calm -- 30.15 in1021.0 mb - 0.00 in0.0 mm 0.19 in4.8 mm
08:50 AM 70.7°F21.5°C 65.6°F18.7°C 84% 1.2 mph N1.9 kmh N 3.5 mph5.6 kmh 30.15 in1021.0 mb - 0.00 in0.0 mm 0.19 in4.8 mm
09:00 AM 70.9°F21.6°C 65.2°F18.4°C 82% 1.2 mph NNW1.9 kmh NNW 4.6 mph7.4 kmh 30.15 in1021.0 mb - 0.00 in0.0 mm 0.19 in4.8 mm
09:10 AM 70.5°F21.4°C 64.0°F17.8°C 80% Calm Calm 3.5 mph5.6 kmh 30.15 in1021.0 mb - 0.00 in0.0 mm 0.19 in4.8 mm
09:20 AM 70.8°F21.6°C 65.4°F18.6°C 83% Calm Calm -- 30.15 in1021.0 mb - 0.00 in0.0 mm 0.19 in4.8 mm
09:30 AM 71.2°F21.8°C 65.0°F18.3°C 81% Calm Calm -- 30.15 in1021.0 mb - 0.00 in0.0 mm 0.19 in4.8 mm
09:40 AM 72.3°F22.4°C 65.8°F18.8°C 80% 1.2 mph WNW1.9 kmh WNW 3.5 mph5.6 kmh 30.15 in1021.0 mb - 0.00 in0.0 mm 0.19 in4.8 mm
09:50 AM 74.1°F23.4°C 65.3°F18.5°C 74% 3.5 mph S5.6 kmh S 3.5 mph5.6 kmh 30.15 in1021.0 mb - 0.00 in0.0 mm 0.19 in4.8 mm
10:00 AM 74.5°F23.6°C 64.4°F18.0°C 71% 2.3 mph S3.7 kmh S 3.5 mph5.6 kmh 30.15 in1021.0 mb - 0.00 in0.0 mm 0.19 in4.8 mm
10:10 AM 73.7°F23.2°C 64.1°F17.8°C 72% 1.2 mph SW1.9 kmh SW 2.3 mph3.7 kmh 30.15 in1021.0 mb - 0.00 in0.0 mm 0.19 in4.8 mm
10:20 AM 74.7°F23.7°C 64.7°F18.2°C 71% 1.2 mph W1.9 kmh W 3.5 mph5.6 kmh 30.15 in1021.0 mb - 0.00 in0.0 mm 0.19 in4.8 mm
10:30 AM 76.3°F24.6°C 63.7°F17.6°C 65% Calm Calm -- 30.15 in1021.0 mb - 0.00 in0.0 mm 0.19 in4.8 mm
10:40 AM 75.9°F24.4°C 64.6°F18.1°C 68% Calm Calm -- 30.15 in1021.0 mb - 0.00 in0.0 mm 0.19 in4.8 mm
10:50 AM 75.4°F24.1°C 63.2°F17.3°C 66% 3.5 mph NW5.6 kmh NW 5.8 mph9.3 kmh 30.18 in1022.0 mb - 0.00 in0.0 mm 0.19 in4.8 mm
11:00 AM 75.5°F24.2°C 63.3°F17.4°C 66% 4.6 mph N7.4 kmh N 5.8 mph9.3 kmh 30.18 in1022.0 mb - 0.00 in0.0 mm 0.19 in4.8 mm
11:10 AM 77.5°F25.3°C 66.5°F19.2°C 69% 3.5 mph N5.6 kmh N 5.8 mph9.3 kmh 30.18 in1022.0 mb - 0.00 in0.0 mm 0.19 in4.8 mm
11:20 AM 78.1°F25.6°C 65.8°F18.8°C 66% 4.6 mph NNW7.4 kmh NNW 8.1 mph13.0 kmh 30.18 in1022.0 mb - 0.00 in0.0 mm 0.19 in4.8 mm
11:30 AM 76.9°F24.9°C 63.8°F17.7°C 64% 3.5 mph NW5.6 kmh NW 3.5 mph5.6 kmh 30.18 in1022.0 mb - 0.00 in0.0 mm 0.19 in4.8 mm
11:40 AM 78.0°F25.6°C 64.3°F17.9°C 63% 3.5 mph NW5.6 kmh NW 3.5 mph5.6 kmh 30.18 in1022.0 mb - 0.00 in0.0 mm 0.19 in4.8 mm
11:50 AM 76.8°F24.9°C 63.3°F17.4°C 63% Calm Calm -- 30.18 in1022.0 mb - 0.00 in0.0 mm 0.19 in4.8 mm
12:00 PM 76.3°F24.6°C 62.3°F16.8°C 62% 3.5 mph SW5.6 kmh SW 3.5 mph5.6 kmh 30.15 in1021.0 mb - 0.00 in0.0 mm 0.19 in4.8 mm
12:10 PM 78.3°F25.7°C 64.2°F17.9°C 62% Calm Calm 3.5 mph5.6 kmh 30.15 in1021.0 mb - 0.00 in0.0 mm 0.19 in4.8 mm
12:20 PM 77.7°F25.4°C 62.2°F16.8°C 59% 2.3 mph WNW3.7 kmh WNW 3.5 mph5.6 kmh 30.15 in1021.0 mb - 0.00 in0.0 mm 0.19 in4.8 mm
12:30 PM 72.6°F22.6°C 64.9°F18.3°C 77% 4.6 mph WSW7.4 kmh WSW 5.8 mph9.3 kmh 30.15 in1021.0 mb - 0.19 in4.8 mm 0.38 in9.7 mm
12:40 PM 70.0°F21.1°C 66.9°F19.4°C 90% 3.5 mph WSW5.6 kmh WSW 5.8 mph9.3 kmh 30.15 in1021.0 mb - 0.19 in4.8 mm 0.38 in9.7 mm
12:50 PM 70.9°F21.6°C 67.9°F19.9°C 90% 2.3 mph W3.7 kmh W 5.8 mph9.3 kmh 30.15 in1021.0 mb - 0.19 in4.8 mm 0.38 in9.7 mm
01:00 PM 69.9°F21.1°C 66.8°F19.3°C 90% Calm Calm -- 30.15 in1021.0 mb - 0.19 in4.8 mm 0.38 in9.7 mm
01:10 PM 69.2°F20.7°C 67.1°F19.5°C 93% 4.6 mph S7.4 kmh S 5.8 mph9.3 kmh 30.15 in1021.0 mb - 0.19 in4.8 mm 0.38 in9.7 mm
01:20 PM 69.5°F20.8°C 67.7°F19.8°C 94% 3.5 mph S5.6 kmh S 5.8 mph9.3 kmh 30.15 in1021.0 mb - 0.19 in4.8 mm 0.38 in9.7 mm
01:30 PM 71.8°F22.1°C 70.3°F21.3°C 95% 3.5 mph S5.6 kmh S 5.8 mph9.3 kmh 30.18 in1022.0 mb - 0.00 in0.0 mm 0.38 in9.7 mm
01:40 PM 71.4°F21.9°C 69.5°F20.8°C 94% Calm Calm -- 30.18 in1022.0 mb - 0.00 in0.0 mm 0.38 in9.7 mm
01:50 PM 71.5°F21.9°C 69.4°F20.8°C 93% Calm Calm -- 30.18 in1022.0 mb - 0.00 in0.0 mm 0.38 in9.7 mm
02:00 PM 73.1°F22.8°C 70.3°F21.3°C 91% Calm Calm -- 30.15 in1021.0 mb - 0.00 in0.0 mm 0.38 in9.7 mm
02:10 PM 71.7°F22.1°C 69.0°F20.6°C 91% Calm Calm -- 30.15 in1021.0 mb - 0.00 in0.0 mm 0.38 in9.7 mm
02:20 PM 72.3°F22.4°C 70.1°F21.2°C 93% Calm Calm -- 30.15 in1021.0 mb - 0.00 in0.0 mm 0.38 in9.7 mm
02:30 PM 76.3°F24.6°C 72.8°F22.7°C 89% 1.2 mph S1.9 kmh S 3.5 mph5.6 kmh 30.15 in1021.0 mb - 0.00 in0.0 mm 0.38 in9.7 mm
02:40 PM 77.3°F25.2°C 69.6°F20.9°C 77% 3.5 mph SW5.6 kmh SW 5.8 mph9.3 kmh 30.15 in1021.0 mb - 0.00 in0.0 mm 0.38 in9.7 mm
02:50 PM 76.3°F24.6°C 65.8°F18.8°C 70% 3.5 mph NNW5.6 kmh NNW 5.8 mph9.3 kmh 30.15 in1021.0 mb - 0.00 in0.0 mm 0.38 in9.7 mm
03:00 PM 74.8°F23.8°C 65.2°F18.4°C 72% 3.5 mph N5.6 kmh N 5.8 mph9.3 kmh 30.15 in1021.0 mb - 0.00 in0.0 mm 0.38 in9.7 mm
03:10 PM 79.3°F26.3°C 66.1°F18.9°C 64% 3.5 mph SSE5.6 kmh SSE 4.6 mph7.4 kmh 30.15 in1021.0 mb - 0.00 in0.0 mm 0.38 in9.7 mm
03:20 PM 78.0°F25.6°C 63.9°F17.7°C 62% 2.3 mph NE3.7 kmh NE 3.5 mph5.6 kmh 30.15 in1021.0 mb - 0.00 in0.0 mm 0.38 in9.7 mm
03:30 PM 80.4°F26.9°C 66.2°F19.0°C 62% 3.5 mph NNE5.6 kmh NNE 3.5 mph5.6 kmh 30.15 in1021.0 mb - 0.00 in0.0 mm 0.38 in9.7 mm
03:40 PM 78.7°F25.9°C 62.2°F16.8°C 57% 5.8 mph NE9.3 kmh NE 8.1 mph13.0 kmh 30.15 in1021.0 mb - 0.00 in0.0 mm 0.38 in9.7 mm
03:50 PM 76.3°F24.6°C 61.4°F16.3°C 60% 3.5 mph NE5.6 kmh NE 6.9 mph11.1 kmh 30.15 in1021.0 mb - 0.00 in0.0 mm 0.38 in9.7 mm
04:00 PM 76.3°F24.6°C 61.4°F16.3°C 60% 3.5 mph N5.6 kmh N 5.8 mph9.3 kmh 30.15 in1021.0 mb - 0.00 in0.0 mm 0.38 in9.7 mm
04:10 PM 76.4°F24.7°C 61.4°F16.3°C 60% 3.5 mph NNE5.6 kmh NNE 8.1 mph13.0 kmh 30.15 in1021.0 mb - 0.00 in0.0 mm 0.38 in9.7 mm
04:20 PM 76.6°F24.8°C 61.2°F16.2°C 59% 2.3 mph N3.7 kmh N 5.8 mph9.3 kmh 30.15 in1021.0 mb - 0.00 in0.0 mm 0.38 in9.7 mm
04:30 PM 76.3°F24.6°C 59.9°F15.5°C 57% 4.6 mph NNE7.4 kmh NNE 4.6 mph7.4 kmh 30.15 in1021.0 mb - 0.00 in0.0 mm 0.38 in9.7 mm
04:40 PM 77.6°F25.3°C 61.6°F16.4°C 58% 2.3 mph NNE3.7 kmh NNE 3.5 mph5.6 kmh 30.15 in1021.0 mb - 0.00 in0.0 mm 0.38 in9.7 mm
04:50 PM 77.8°F25.4°C 60.8°F16.0°C 56% Calm Calm -- 30.15 in1021.0 mb - 0.00 in0.0 mm 0.38 in9.7 mm
05:00 PM 77.1°F25.1°C 59.7°F15.4°C 55% 2.3 mph N3.7 kmh N 5.8 mph9.3 kmh 30.15 in1021.0 mb - 0.00 in0.0 mm 0.38 in9.7 mm
05:10 PM 77.7°F25.4°C 60.8°F16.0°C 56% Calm Calm 2.3 mph3.7 kmh 30.15 in1021.0 mb - 0.00 in0.0 mm 0.38 in9.7 mm
05:20 PM 78.6°F25.9°C 61.6°F16.4°C 56% 4.6 mph ENE7.4 kmh ENE 8.1 mph13.0 kmh 30.18 in1022.0 mb - 0.00 in0.0 mm 0.38 in9.7 mm
05:30 PM 79.0°F26.1°C 61.4°F16.3°C 55% 4.6 mph N7.4 kmh N 5.8 mph9.3 kmh 30.18 in1022.0 mb - 0.00 in0.0 mm 0.38 in9.7 mm
05:40 PM 78.7°F25.9°C 61.7°F16.5°C 56% 2.3 mph N3.7 kmh N 4.6 mph7.4 kmh 30.18 in1022.0 mb - 0.00 in0.0 mm 0.38 in9.7 mm
05:50 PM 77.6°F25.3°C 61.7°F16.5°C 58% 3.5 mph N5.6 kmh N 3.5 mph5.6 kmh 30.15 in1021.0 mb - 0.00 in0.0 mm 0.38 in9.7 mm
06:00 PM 77.0°F25.0°C 61.1°F16.2°C 58% 3.5 mph NNE5.6 kmh NNE 5.8 mph9.3 kmh 30.18 in1022.0 mb - 0.00 in0.0 mm 0.38 in9.7 mm
06:10 PM 76.5°F24.7°C 60.6°F15.9°C 58% 4.6 mph N7.4 kmh N 4.6 mph7.4 kmh 30.18 in1022.0 mb - 0.00 in0.0 mm 0.38 in9.7 mm
06:20 PM 75.8°F24.3°C 60.9°F16.1°C 60% 2.3 mph NNE3.7 kmh NNE 5.8 mph9.3 kmh 30.18 in1022.0 mb - 0.00 in0.0 mm 0.38 in9.7 mm
06:30 PM 75.0°F23.9°C 60.6°F15.9°C 61% 3.5 mph NW5.6 kmh NW 3.5 mph5.6 kmh 30.18 in1022.0 mb - 0.00 in0.0 mm 0.38 in9.7 mm
06:40 PM 74.5°F23.6°C 60.6°F15.9°C 62% 1.2 mph NW1.9 kmh NW 5.8 mph9.3 kmh 30.18 in1022.0 mb - 0.00 in0.0 mm 0.38 in9.7 mm
06:50 PM 73.5°F23.1°C 59.6°F15.3°C 62% 2.3 mph N3.7 kmh N 3.5 mph5.6 kmh 30.18 in1022.0 mb - 0.00 in0.0 mm 0.38 in9.7 mm
07:00 PM 72.3°F22.4°C 59.4°F15.2°C 64% 3.5 mph N5.6 kmh N 5.8 mph9.3 kmh 30.18 in1022.0 mb - 0.00 in0.0 mm 0.38 in9.7 mm
07:10 PM 70.9°F21.6°C 59.0°F15.0°C 66% 5.8 mph NW9.3 kmh NW 8.1 mph13.0 kmh 30.18 in1022.0 mb - 0.00 in0.0 mm 0.38 in9.7 mm
07:20 PM 70.5°F21.4°C 59.0°F15.0°C 67% Calm Calm -- 30.18 in1022.0 mb - 0.00 in0.0 mm 0.38 in9.7 mm
07:30 PM 70.2°F21.2°C 59.9°F15.5°C 70% 3.5 mph NNW5.6 kmh NNW 4.6 mph7.4 kmh 30.18 in1022.0 mb - 0.00 in0.0 mm 0.38 in9.7 mm
07:40 PM 69.4°F20.8°C 60.4°F15.8°C 73% 1.2 mph W1.9 kmh W 2.3 mph3.7 kmh 30.18 in1022.0 mb - 0.00 in0.0 mm 0.38 in9.7 mm
07:50 PM 68.8°F20.4°C 60.9°F16.1°C 76% Calm Calm -- 30.18 in1022.0 mb - 0.00 in0.0 mm 0.38 in9.7 mm
08:00 PM 68.4°F20.2°C 60.9°F16.1°C 77% Calm Calm 3.5 mph5.6 kmh 30.18 in1022.0 mb - 0.00 in0.0 mm 0.38 in9.7 mm
08:10 PM 67.8°F19.9°C 61.8°F16.6°C 81% 2.3 mph NW3.7 kmh NW 3.5 mph5.6 kmh 30.18 in1022.0 mb - 0.00 in0.0 mm 0.38 in9.7 mm
08:20 PM 67.5°F19.7°C 62.1°F16.7°C 83% Calm Calm -- 30.18 in1022.0 mb - 0.00 in0.0 mm 0.38 in9.7 mm
08:30 PM 67.1°F19.5°C 62.7°F17.1°C 86% 4.6 mph NW7.4 kmh NW 5.8 mph9.3 kmh 30.18 in1022.0 mb - 0.00 in0.0 mm 0.38 in9.7 mm
08:40 PM 66.7°F19.3°C 63.1°F17.3°C 88% 1.2 mph N1.9 kmh N 2.3 mph3.7 kmh 30.18 in1022.0 mb - 0.00 in0.0 mm 0.38 in9.7 mm
08:50 PM 66.7°F19.3°C 63.7°F17.6°C 90% 5.8 mph NNW9.3 kmh NNW 6.9 mph11.1 kmh 30.21 in1023.0 mb - 0.00 in0.0 mm 0.38 in9.7 mm
09:00 PM 66.6°F19.2°C 63.9°F17.7°C 91% 4.6 mph NNW7.4 kmh NNW 5.8 mph9.3 kmh 30.21 in1023.0 mb - 0.00 in0.0 mm 0.38 in9.7 mm
09:10 PM 66.4°F19.1°C 64.0°F17.8°C 92% 3.5 mph N5.6 kmh N 3.5 mph5.6 kmh 30.21 in1023.0 mb - 0.00 in0.0 mm 0.38 in9.7 mm
09:20 PM 66.2°F19.0°C 63.8°F17.7°C 92% 3.5 mph NW5.6 kmh NW 3.5 mph5.6 kmh 30.21 in1023.0 mb - 0.00 in0.0 mm 0.38 in9.7 mm
09:30 PM 66.0°F18.9°C 63.9°F17.7°C 93% 3.5 mph NW5.6 kmh NW 4.6 mph7.4 kmh 30.21 in1023.0 mb - 0.00 in0.0 mm 0.38 in9.7 mm
09:40 PM 65.8°F18.8°C 64.1°F17.8°C 94% 1.2 mph NW1.9 kmh NW 5.8 mph9.3 kmh 30.21 in1023.0 mb - 0.00 in0.0 mm 0.38 in9.7 mm
09:50 PM 65.7°F18.7°C 63.9°F17.7°C 94% Calm Calm -- 30.21 in1023.0 mb - 0.00 in0.0 mm 0.38 in9.7 mm
10:00 PM 65.7°F18.7°C 63.9°F17.7°C 94% Calm Calm -- 30.24 in1024.0 mb - 0.00 in0.0 mm 0.38 in9.7 mm
10:10 PM 65.6°F18.7°C 64.1°F17.8°C 95% Calm Calm -- 30.24 in1024.0 mb - 0.05 in1.3 mm 0.43 in10.9 mm
10:20 PM 65.5°F18.6°C 64.0°F17.8°C 95% Calm Calm 3.5 mph5.6 kmh 30.24 in1024.0 mb - 0.05 in1.3 mm 0.43 in10.9 mm
10:30 PM 65.3°F18.5°C 63.8°F17.7°C 95% Calm Calm -- 30.24 in1024.0 mb - 0.05 in1.3 mm 0.43 in10.9 mm
10:40 PM 65.0°F18.3°C 63.5°F17.5°C 95% Calm Calm -- 30.24 in1024.0 mb - 0.05 in1.3 mm 0.43 in10.9 mm
10:50 PM 64.8°F18.2°C 63.6°F17.6°C 96% Calm Calm -- 30.24 in1024.0 mb - 0.05 in1.3 mm 0.43 in10.9 mm
11:00 PM 64.8°F18.2°C 63.6°F17.6°C 96% Calm Calm -- 30.21 in1023.0 mb - 0.05 in1.3 mm 2.62 in66.5 mm
11:10 PM 64.6°F18.1°C 63.4°F17.4°C 96% Calm Calm -- 30.21 in1023.0 mb - 0.00 in0.0 mm 2.62 in66.5 mm
11:20 PM 64.4°F18.0°C 63.2°F17.3°C 96% Calm Calm -- 30.24 in1024.0 mb - 0.00 in0.0 mm 2.62 in66.5 mm
11:30 PM 64.4°F18.0°C 63.2°F17.3°C 96% Calm Calm -- 30.21 in1023.0 mb - 0.00 in0.0 mm 2.62 in66.5 mm
11:40 PM 64.2°F17.9°C 63.4°F17.4°C 97% Calm Calm -- 30.21 in1023.0 mb - 0.00 in0.0 mm 2.62 in66.5 mm
11:50 PM 64.2°F17.9°C 63.4°F17.4°C 97% Calm Calm -- 30.21 in1023.0 mb - 0.00 in0.0 mm 2.62 in66.5 mm